createdAt,value
2023-02-04T00:00:24.335Z,6.72
2023-02-04T00:02:53.646Z,6.71
2023-02-04T00:05:21.889Z,6.78
2023-02-04T00:07:48.882Z,6.83
2023-02-04T00:10:16.159Z,7.03
2023-02-04T00:12:43.025Z,7.13
2023-02-04T00:15:10.762Z,7.30
2023-02-04T00:17:40.041Z,7.19
2023-02-04T00:20:07.403Z,7.29
2023-02-04T00:22:34.211Z,7.51
2023-02-04T00:25:03.703Z,7.51
2023-02-04T00:27:30.631Z,7.62
2023-02-04T00:30:00.508Z,7.63
2023-02-04T00:32:27.473Z,7.60
2023-02-04T00:34:56.595Z,7.71
2023-02-04T00:37:26.224Z,7.74
2023-02-04T00:39:55.215Z,7.69
2023-02-04T00:42:22.294Z,7.58
2023-02-04T00:44:54.474Z,7.55
2023-02-04T00:47:21.402Z,7.56
2023-02-04T00:49:48.268Z,7.48
2023-02-04T00:52:19.811Z,7.41
2023-02-04T00:54:46.655Z,7.35
2023-02-04T00:57:13.628Z,7.53
2023-02-04T00:59:40.500Z,7.51
2023-02-04T01:02:07.578Z,7.41
2023-02-04T01:04:34.419Z,7.50
2023-02-04T01:07:01.448Z,7.68
2023-02-04T01:09:34.014Z,7.80
2023-02-04T01:12:05.882Z,7.68
2023-02-04T01:14:35.414Z,7.61
2023-02-04T01:17:02.354Z,7.48
2023-02-04T01:19:29.276Z,7.38
2023-02-04T01:21:56.133Z,7.27
2023-02-04T01:24:25.343Z,7.28
2023-02-04T01:26:58.447Z,7.09
2023-02-04T01:29:29.904Z,7.15
2023-02-04T01:31:59.309Z,7.24
2023-02-04T01:34:31.493Z,7.40
2023-02-04T01:36:58.470Z,7.42
2023-02-04T01:39:25.434Z,7.50
2023-02-04T01:41:52.434Z,7.45
2023-02-04T01:44:19.277Z,7.40
2023-02-04T01:46:48.375Z,7.49
2023-02-04T01:49:20.300Z,7.53
2023-02-04T01:51:47.529Z,7.45
2023-02-04T01:54:18.007Z,7.49
2023-02-04T01:56:51.539Z,7.55
2023-02-04T01:59:26.912Z,7.71
2023-02-04T02:01:56.575Z,7.73
2023-02-04T02:04:32.901Z,7.55
2023-02-04T02:07:05.811Z,7.47
2023-02-04T02:09:37.663Z,7.55
2023-02-04T02:12:04.954Z,7.59
2023-02-04T02:14:31.768Z,7.63
2023-02-04T02:17:01.227Z,7.68
2023-02-04T02:19:36.509Z,7.67
2023-02-04T02:22:11.537Z,7.77
2023-02-04T02:24:38.369Z,7.80
2023-02-04T02:27:09.553Z,7.78
2023-02-04T02:29:41.422Z,7.89
2023-02-04T02:32:11.311Z,7.85
2023-02-04T02:34:39.504Z,7.90
2023-02-04T02:37:10.142Z,7.78
2023-02-04T02:39:47.167Z,7.71
2023-02-04T02:42:18.016Z,7.75
2023-02-04T02:44:49.503Z,7.70
2023-02-04T02:47:21.758Z,7.55
2023-02-04T02:49:54.666Z,7.56
2023-02-04T02:52:23.007Z,7.39
2023-02-04T02:54:53.677Z,7.47
2023-02-04T02:57:23.221Z,7.39
2023-02-04T02:59:50.498Z,7.44
2023-02-04T03:02:23.925Z,7.34
2023-02-04T03:05:01.565Z,7.12
2023-02-04T03:07:28.660Z,7.13
2023-02-04T03:09:58.730Z,7.13
2023-02-04T03:12:25.800Z,7.02
2023-02-04T03:14:52.674Z,7.01
2023-02-04T03:17:19.894Z,6.98
2023-02-04T03:19:46.832Z,7.06
2023-02-04T03:22:16.497Z,7.00
2023-02-04T03:24:43.507Z,6.90
2023-02-04T03:27:10.417Z,6.88
2023-02-04T03:29:48.452Z,6.76
2023-02-04T03:32:15.499Z,6.83
2023-02-04T03:34:42.437Z,6.85
2023-02-04T03:37:09.628Z,6.87
2023-02-04T03:39:41.006Z,6.79
2023-02-04T03:42:10.437Z,6.80
2023-02-04T03:44:41.856Z,6.97
2023-02-04T03:47:08.823Z,7.09
2023-02-04T03:49:36.188Z,7.06
2023-02-04T03:52:04.368Z,7.15
2023-02-04T03:54:34.301Z,7.19
2023-02-04T03:57:01.179Z,7.06
2023-02-04T03:59:28.106Z,7.21
2023-02-04T04:01:55.081Z,7.19
2023-02-04T04:04:22.111Z,7.27
2023-02-04T04:06:48.942Z,7.28
2023-02-04T04:09:18.285Z,7.32
2023-02-04T04:11:48.231Z,7.29
2023-02-04T04:14:15.241Z,7.44
2023-02-04T04:16:44.400Z,7.43
2023-02-04T04:19:11.397Z,7.36
2023-02-04T04:21:43.074Z,7.53
2023-02-04T04:24:12.207Z,7.59
2023-02-04T04:26:41.454Z,7.61
2023-02-04T04:29:13.153Z,7.50
2023-02-04T04:31:41.358Z,7.55
2023-02-04T04:34:13.319Z,7.61
2023-02-04T04:36:40.719Z,7.62
2023-02-04T04:39:07.589Z,7.64
2023-02-04T04:41:39.137Z,7.70
2023-02-04T04:44:06.298Z,7.67
2023-02-04T04:46:35.730Z,7.45
2023-02-04T04:49:02.762Z,7.38
2023-02-04T04:51:31.931Z,7.39
2023-02-04T04:53:59.939Z,7.42
2023-02-04T04:56:26.973Z,7.55
2023-02-04T04:58:53.825Z,7.65
2023-02-04T05:01:22.543Z,7.67
2023-02-04T05:03:54.353Z,7.63
2023-02-04T05:06:25.357Z,7.67
2023-02-04T05:08:55.680Z,7.56
2023-02-04T05:11:25.659Z,7.48
2023-02-04T05:13:52.586Z,7.39
2023-02-04T05:16:24.291Z,7.36
2023-02-04T05:18:51.392Z,7.45
2023-02-04T05:21:18.332Z,7.45
2023-02-04T05:23:47.384Z,7.21
2023-02-04T05:26:25.145Z,7.18
2023-02-04T05:28:56.358Z,7.10
2023-02-04T05:31:24.196Z,7.01
2023-02-04T05:33:54.609Z,7.18
2023-02-04T05:36:22.052Z,7.15
2023-02-04T05:38:49.292Z,7.25
2023-02-04T05:41:18.636Z,7.28
2023-02-04T05:43:45.602Z,7.40
2023-02-04T05:46:12.604Z,7.51
2023-02-04T05:48:41.762Z,7.34
2023-02-04T05:51:08.659Z,7.28
2023-02-04T05:53:37.788Z,7.40
2023-02-04T05:56:12.809Z,7.41
2023-02-04T05:58:42.829Z,7.36
2023-02-04T06:01:12.210Z,7.26
2023-02-04T06:03:39.301Z,7.17
2023-02-04T06:06:09.120Z,7.27
2023-02-04T06:08:38.451Z,7.05
2023-02-04T06:11:07.878Z,7.03
2023-02-04T06:13:34.813Z,6.84
2023-02-04T06:16:04.296Z,7.03
2023-02-04T06:18:31.297Z,6.99
2023-02-04T06:20:58.207Z,6.77
2023-02-04T06:23:25.241Z,6.58
2023-02-04T06:25:52.366Z,6.44
2023-02-04T06:28:21.425Z,6.54
2023-02-04T06:30:49.548Z,6.73
2023-02-04T06:33:16.772Z,6.64
2023-02-04T06:35:43.723Z,6.72
2023-02-04T06:38:10.615Z,6.68
2023-02-04T06:40:41.997Z,6.69
2023-02-04T06:43:11.468Z,6.66
2023-02-04T06:45:43.161Z,6.68
2023-02-04T06:48:10.189Z,6.70
2023-02-04T06:50:37.121Z,6.49
2023-02-04T06:53:06.680Z,6.51
2023-02-04T06:55:33.622Z,6.33
2023-02-04T06:58:02.740Z,6.47
2023-02-04T07:00:32.142Z,6.29
2023-02-04T07:02:59.759Z,6.38
2023-02-04T07:05:26.719Z,6.37
2023-02-04T07:07:56.627Z,6.38
2023-02-04T07:10:23.730Z,6.39
2023-02-04T07:12:50.577Z,6.41
2023-02-04T07:15:17.738Z,6.46
2023-02-04T07:17:44.825Z,6.40
2023-02-04T07:20:15.525Z,6.40
2023-02-04T07:22:42.586Z,6.49
2023-02-04T07:25:15.038Z,6.67
2023-02-04T07:27:44.074Z,6.70
2023-02-04T07:30:13.939Z,6.78
2023-02-04T07:32:43.327Z,7.54
2023-02-04T07:35:15.221Z,8.40
2023-02-04T07:37:44.269Z,9.03
2023-02-04T07:40:12.823Z,9.27
2023-02-04T07:42:41.899Z,9.27
2023-02-04T07:45:11.596Z,9.13
2023-02-04T07:47:38.720Z,9.78
2023-02-04T07:50:06.081Z,10.18
2023-02-04T07:52:33.153Z,10.04
2023-02-04T07:55:00.094Z,9.71
2023-02-04T07:57:27.099Z,9.57
2023-02-04T07:59:54.069Z,9.47
2023-02-04T08:02:21.484Z,9.30
2023-02-04T08:04:48.489Z,8.97
2023-02-04T08:07:17.506Z,9.22
2023-02-04T08:09:44.507Z,9.75
2023-02-04T08:12:11.437Z,11.00
2023-02-04T08:14:40.929Z,12.54
2023-02-04T08:17:09.863Z,14.32
2023-02-04T08:19:39.048Z,16.35
2023-02-04T08:22:08.484Z,17.77
2023-02-04T08:24:40.653Z,18.09
2023-02-04T08:27:07.734Z,18.07
2023-02-04T08:29:34.710Z,17.87
2023-02-04T08:32:02.296Z,17.85
2023-02-04T08:34:29.433Z,17.41
2023-02-04T08:36:56.531Z,16.85
2023-02-04T08:39:25.990Z,17.22
2023-02-04T08:41:53.136Z,18.61
2023-02-04T08:44:22.841Z,19.06
2023-02-04T08:46:49.791Z,19.80
2023-02-04T08:49:18.985Z,19.87
2023-02-04T08:51:46.022Z,19.63
2023-02-04T08:54:15.997Z,19.58
2023-02-04T08:56:45.024Z,20.80
2023-02-04T08:59:12.147Z,21.60
2023-02-04T09:01:51.066Z,21.66
2023-02-04T09:04:23.168Z,21.45
2023-02-04T09:06:53.964Z,21.41
2023-02-04T09:09:24.868Z,20.50
2023-02-04T09:11:53.090Z,20.36
2023-02-04T09:14:23.131Z,20.30
2023-02-04T09:16:52.325Z,21.18
2023-02-04T09:19:25.576Z,21.97
2023-02-04T09:21:54.032Z,22.67
2023-02-04T09:24:23.901Z,22.47
2023-02-04T09:26:54.699Z,22.31
2023-02-04T09:29:21.798Z,22.34
2023-02-04T09:31:49.120Z,22.42
2023-02-04T09:34:16.115Z,22.96
2023-02-04T09:36:43.043Z,23.32
2023-02-04T09:39:10.252Z,23.43
2023-02-04T09:41:41.840Z,23.98
2023-02-04T09:44:22.969Z,24.46
2023-02-04T09:46:55.996Z,23.64
2023-02-04T09:49:23.382Z,24.26
2023-02-04T09:51:53.133Z,24.26
2023-02-04T09:54:28.131Z,24.60
2023-02-04T09:56:59.422Z,25.78
2023-02-04T09:59:29.580Z,25.66
2023-02-04T10:02:01.920Z,25.49
2023-02-04T10:04:32.324Z,26.57
2023-02-04T10:06:59.329Z,25.98
2023-02-04T10:09:28.789Z,24.94
2023-02-04T10:11:58.844Z,25.20
2023-02-04T10:14:25.840Z,26.91
2023-02-04T10:16:59.786Z,27.72
2023-02-04T10:19:29.214Z,27.29
2023-02-04T10:21:56.815Z,27.94
2023-02-04T10:24:34.531Z,27.53
2023-02-04T10:27:10.688Z,27.29
2023-02-04T10:29:38.212Z,27.82
2023-02-04T10:32:05.280Z,28.84
2023-02-04T10:34:40.061Z,30.19
2023-02-04T10:37:23.628Z,29.76
2023-02-04T10:39:52.833Z,27.50
2023-02-04T10:42:26.341Z,24.28
2023-02-04T10:44:54.089Z,22.84
2023-02-04T10:47:29.010Z,24.48
2023-02-04T10:50:15.296Z,23.39
2023-02-04T10:53:15.174Z,24.06
2023-02-04T10:55:43.546Z,23.94
2023-02-04T10:58:17.346Z,19.56
2023-02-04T11:00:44.544Z,18.42
2023-02-04T11:03:22.874Z,20.47
2023-02-04T11:05:50.464Z,18.32
2023-02-04T11:08:32.546Z,16.58
2023-02-04T11:11:06.249Z,16.19
2023-02-04T11:13:51.529Z,15.28
2023-02-04T11:16:18.470Z,14.37
2023-02-04T11:18:58.248Z,12.89
2023-02-04T11:21:34.511Z,15.17
2023-02-04T11:24:16.412Z,18.92
2023-02-04T11:26:51.610Z,21.72
2023-02-04T11:29:43.804Z,22.88
2023-02-04T11:32:37.872Z,23.33
2023-02-04T11:35:27.625Z,22.78
2023-02-04T11:37:56.084Z,23.99
2023-02-04T11:40:25.326Z,25.50
2023-02-04T11:42:59.846Z,24.63
2023-02-04T11:45:32.382Z,26.87
2023-02-04T11:48:04.143Z,26.21
2023-02-04T11:50:35.278Z,21.63
2023-02-04T11:53:02.587Z,20.27
2023-02-04T11:55:39.608Z,20.18
2023-02-04T11:58:10.087Z,21.65
2023-02-04T12:00:39.417Z,22.65
2023-02-04T12:03:26.367Z,24.74
2023-02-04T12:05:59.642Z,24.58
2023-02-04T12:08:37.225Z,25.23
2023-02-04T12:11:15.834Z,25.52
2023-02-04T12:13:52.487Z,25.83
2023-02-04T12:16:22.075Z,26.25
2023-02-04T12:18:49.834Z,27.31
2023-02-04T12:21:20.280Z,24.33
2023-02-04T12:23:47.333Z,22.72
2023-02-04T12:26:14.358Z,24.55
2023-02-04T12:28:41.271Z,26.73
2023-02-04T12:31:08.458Z,26.23
2023-02-04T12:33:37.769Z,28.00
2023-02-04T12:36:05.305Z,28.06
2023-02-04T12:38:34.450Z,26.99
2023-02-04T12:41:01.564Z,27.46
2023-02-04T12:43:28.561Z,27.86
2023-02-04T12:45:58.058Z,28.94
2023-02-04T12:48:26.188Z,29.01
2023-02-04T12:50:53.426Z,28.50
2023-02-04T12:53:23.058Z,26.80
2023-02-04T12:55:50.117Z,26.56
2023-02-04T12:58:19.622Z,28.13
2023-02-04T13:00:46.628Z,27.28
2023-02-04T13:03:16.263Z,26.41
2023-02-04T13:05:47.925Z,26.78
2023-02-04T13:08:14.842Z,26.57
2023-02-04T13:10:43.853Z,25.29
2023-02-04T13:13:10.840Z,25.87
2023-02-04T13:15:40.114Z,27.52
2023-02-04T13:18:08.314Z,27.00
2023-02-04T13:20:35.892Z,26.92
2023-02-04T13:23:03.994Z,27.08
2023-02-04T13:25:31.429Z,25.86
2023-02-04T13:28:04.475Z,25.81
2023-02-04T13:30:31.621Z,24.40
2023-02-04T13:33:01.241Z,23.93
2023-02-04T13:35:31.116Z,21.18
2023-02-04T13:38:01.258Z,20.81
2023-02-04T13:40:30.573Z,21.60
2023-02-04T13:42:57.706Z,22.62
2023-02-04T13:45:25.225Z,22.16
2023-02-04T13:47:55.718Z,21.14
2023-02-04T13:50:25.650Z,21.00
2023-02-04T13:52:52.923Z,19.67
2023-02-04T13:55:20.037Z,18.33
2023-02-04T13:57:47.169Z,16.86
2023-02-04T14:00:14.921Z,16.31
2023-02-04T14:02:44.578Z,15.31
2023-02-04T14:05:14.064Z,14.69
2023-02-04T14:07:41.116Z,14.20
2023-02-04T14:10:11.813Z,13.97
2023-02-04T14:12:42.396Z,14.04
2023-02-04T14:15:09.931Z,13.92
2023-02-04T14:17:43.231Z,13.10
2023-02-04T14:20:13.158Z,13.10
2023-02-04T14:22:42.899Z,12.94
2023-02-04T14:25:10.418Z,12.91
2023-02-04T14:27:42.521Z,12.52
2023-02-04T14:30:19.117Z,12.74
2023-02-04T14:32:47.015Z,13.28
2023-02-04T14:35:17.045Z,13.58
2023-02-04T14:37:47.533Z,13.54
2023-02-04T14:40:25.054Z,13.69
2023-02-04T14:42:54.541Z,13.90
2023-02-04T14:45:21.554Z,13.87
2023-02-04T14:47:48.647Z,13.25
2023-02-04T14:50:17.304Z,12.96
2023-02-04T14:52:44.301Z,12.80
2023-02-04T14:55:14.477Z,12.83
2023-02-04T14:57:44.083Z,12.42
2023-02-04T15:00:16.979Z,12.10
2023-02-04T15:02:46.181Z,11.91
2023-02-04T15:05:15.242Z,11.82
2023-02-04T15:07:46.953Z,11.40
2023-02-04T15:10:16.726Z,11.24
2023-02-04T15:12:44.069Z,11.19
2023-02-04T15:15:11.334Z,11.06
2023-02-04T15:17:40.721Z,10.89
2023-02-04T15:20:11.366Z,10.59
2023-02-04T15:22:39.262Z,10.42
2023-02-04T15:25:07.030Z,10.43
2023-02-04T15:27:39.163Z,10.26
2023-02-04T15:30:10.453Z,9.89
2023-02-04T15:32:37.651Z,9.79
2023-02-04T15:35:08.534Z,9.79
2023-02-04T15:37:35.802Z,9.78
2023-02-04T15:40:02.849Z,9.44
2023-02-04T15:42:33.360Z,9.57
2023-02-04T15:45:02.843Z,9.47
2023-02-04T15:47:32.349Z,9.14
2023-02-04T15:49:59.255Z,9.03
2023-02-04T15:52:31.093Z,9.00
2023-02-04T15:54:58.017Z,8.75
2023-02-04T15:57:25.076Z,8.82
2023-02-04T15:59:54.676Z,8.85
2023-02-04T16:02:21.844Z,8.93
2023-02-04T16:04:54.527Z,8.78
2023-02-04T16:07:21.544Z,8.59
2023-02-04T16:09:48.639Z,8.67
2023-02-04T16:12:15.733Z,8.80
2023-02-04T16:14:45.173Z,8.71
2023-02-04T16:17:14.732Z,8.61
2023-02-04T16:19:41.704Z,8.57
2023-02-04T16:22:08.791Z,8.47
2023-02-04T16:24:35.965Z,8.44
2023-02-04T16:27:03.109Z,8.63
2023-02-04T16:29:30.232Z,8.43
2023-02-04T16:32:00.606Z,8.29
2023-02-04T16:34:29.238Z,8.31
2023-02-04T16:36:58.611Z,8.12
2023-02-04T16:39:25.600Z,8.02
2023-02-04T16:41:52.776Z,8.06
2023-02-04T16:44:19.736Z,8.00
2023-02-04T16:46:49.120Z,7.95
2023-02-04T16:49:17.201Z,8.14
2023-02-04T16:51:44.198Z,8.20
2023-02-04T16:54:14.379Z,8.14
2023-02-04T16:56:43.535Z,8.26
2023-02-04T16:59:10.594Z,8.21
2023-02-04T17:01:37.654Z,8.03
2023-02-04T17:04:07.933Z,8.20
2023-02-04T17:06:35.945Z,7.79
2023-02-04T17:09:02.945Z,7.77
2023-02-04T17:11:29.961Z,7.70
2023-02-04T17:14:03.090Z,7.68
2023-02-04T17:16:30.870Z,7.74
2023-02-04T17:18:58.142Z,7.67
2023-02-04T17:21:30.160Z,7.67
2023-02-04T17:24:04.281Z,7.67
2023-02-04T17:26:39.554Z,7.48
2023-02-04T17:29:17.922Z,7.63
2023-02-04T17:31:45.067Z,7.55
2023-02-04T17:34:12.378Z,7.76
2023-02-04T17:36:39.637Z,7.70
2023-02-04T17:39:07.736Z,7.64
2023-02-04T17:41:39.717Z,7.31
2023-02-04T17:44:06.910Z,7.51
2023-02-04T17:46:38.862Z,7.26
2023-02-04T17:49:05.857Z,7.24
2023-02-04T17:51:33.122Z,7.31
2023-02-04T17:54:02.642Z,7.44
2023-02-04T17:56:29.666Z,7.14
2023-02-04T17:58:56.867Z,7.18
2023-02-04T18:01:26.696Z,7.11
2023-02-04T18:03:58.258Z,7.33
2023-02-04T18:06:29.032Z,7.27
2023-02-04T18:09:05.066Z,7.04
2023-02-04T18:11:39.490Z,6.94
2023-02-04T18:14:27.965Z,6.94
2023-02-04T18:16:58.882Z,6.87
2023-02-04T18:19:36.926Z,6.95
2023-02-04T18:22:15.750Z,6.86
2023-02-04T18:24:46.122Z,6.72
2023-02-04T18:27:23.929Z,6.74
2023-02-04T18:29:59.136Z,6.73
2023-02-04T18:32:42.195Z,6.56
2023-02-04T18:35:42.290Z,6.64
2023-02-04T18:38:32.212Z,6.57
2023-02-04T18:41:21.246Z,6.54
2023-02-04T18:43:51.121Z,6.62
2023-02-04T18:46:33.167Z,6.70
2023-02-04T18:49:17.466Z,6.53
2023-02-04T18:51:45.669Z,6.51
2023-02-04T18:54:24.639Z,6.45
2023-02-04T18:56:53.446Z,6.57
2023-02-04T18:59:21.416Z,6.25
2023-02-04T19:01:51.313Z,6.43
2023-02-04T19:04:26.075Z,6.39
2023-02-04T19:06:55.046Z,6.34
2023-02-04T19:09:29.170Z,6.21
2023-02-04T19:11:58.802Z,6.27
2023-02-04T19:14:43.897Z,6.31
2023-02-04T19:17:14.409Z,6.19
2023-02-04T19:19:46.374Z,5.97
2023-02-04T19:22:49.708Z,5.87
2023-02-04T19:25:27.599Z,6.02
2023-02-04T19:28:00.722Z,6.10
2023-02-04T19:30:30.772Z,5.97
2023-02-04T19:33:14.254Z,5.91
2023-02-04T19:35:46.344Z,5.91
2023-02-04T19:38:45.307Z,5.89
2023-02-04T19:41:48.377Z,5.80
2023-02-04T19:44:20.389Z,5.91
2023-02-04T19:46:49.754Z,5.87
2023-02-04T19:49:30.003Z,5.70
2023-02-04T19:51:59.514Z,5.62
2023-02-04T19:54:46.965Z,5.64
2023-02-04T19:57:25.327Z,5.65
2023-02-04T19:59:59.945Z,5.73
2023-02-04T20:02:38.344Z,5.83
2023-02-04T20:05:20.893Z,5.85
2023-02-04T20:07:50.319Z,5.94
2023-02-04T20:10:24.618Z,5.88
2023-02-04T20:13:18.725Z,5.61
2023-02-04T20:15:48.439Z,5.84
2023-02-04T20:18:20.522Z,5.75
2023-02-04T20:20:47.661Z,5.66
2023-02-04T20:23:29.187Z,5.73
2023-02-04T20:25:59.568Z,5.75
2023-02-04T20:28:40.185Z,5.72
2023-02-04T20:31:38.753Z,5.83
2023-02-04T20:34:22.653Z,5.50
2023-02-04T20:36:52.399Z,5.35
2023-02-04T20:39:34.314Z,5.17
2023-02-04T20:42:20.824Z,5.10
2023-02-04T20:44:48.516Z,5.07
2023-02-04T20:47:25.452Z,4.86
2023-02-04T20:50:01.253Z,4.90
2023-02-04T20:52:43.870Z,4.96
2023-02-04T20:55:22.889Z,4.98
2023-02-04T20:57:58.979Z,5.11
2023-02-04T21:00:34.855Z,4.70
2023-02-04T21:03:15.865Z,4.53
2023-02-04T21:05:46.909Z,4.34
2023-02-04T21:08:21.334Z,4.24
2023-02-04T21:10:48.310Z,4.15
2023-02-04T21:13:15.587Z,4.01
2023-02-04T21:15:45.859Z,4.24
2023-02-04T21:18:16.044Z,4.34
2023-02-04T21:20:43.229Z,4.16
2023-02-04T21:23:10.407Z,4.00
2023-02-04T21:25:37.909Z,3.93
2023-02-04T21:28:06.406Z,3.75
2023-02-04T21:30:33.625Z,3.70
2023-02-04T21:33:02.307Z,3.39
2023-02-04T21:35:30.136Z,3.63
2023-02-04T21:38:04.569Z,3.65
2023-02-04T21:40:37.504Z,3.68
2023-02-04T21:43:08.584Z,3.59
2023-02-04T21:45:39.887Z,3.43
2023-02-04T21:48:10.436Z,3.36
2023-02-04T21:50:38.654Z,3.25
2023-02-04T21:53:08.413Z,3.39
2023-02-04T21:55:39.377Z,3.41
2023-02-04T21:58:09.087Z,3.19
2023-02-04T22:00:39.348Z,3.18
2023-02-04T22:03:10.153Z,3.08
2023-02-04T22:05:37.851Z,3.31
2023-02-04T22:08:12.808Z,3.52
2023-02-04T22:10:39.880Z,3.68
2023-02-04T22:13:07.121Z,3.64
2023-02-04T22:15:37.858Z,3.74
2023-02-04T22:18:09.439Z,3.39
2023-02-04T22:20:38.612Z,3.38
2023-02-04T22:23:06.860Z,3.46
2023-02-04T22:25:35.090Z,3.60
2023-02-04T22:28:02.225Z,3.65
2023-02-04T22:30:29.370Z,3.77
2023-02-04T22:33:00.807Z,3.57
2023-02-04T22:35:33.677Z,3.41
2023-02-04T22:38:04.471Z,3.37
2023-02-04T22:40:31.412Z,3.43
2023-02-04T22:43:01.163Z,3.44
2023-02-04T22:45:31.270Z,3.28
2023-02-04T22:48:01.094Z,3.11
2023-02-04T22:50:28.026Z,3.08
2023-02-04T22:52:55.392Z,3.07
2023-02-04T22:55:25.678Z,3.10
2023-02-04T22:57:52.880Z,3.11
2023-02-04T23:00:22.554Z,2.91
2023-02-04T23:02:49.736Z,2.91
2023-02-04T23:05:19.092Z,2.89
2023-02-04T23:07:46.564Z,2.64
2023-02-04T23:10:14.503Z,2.63
2023-02-04T23:12:44.215Z,2.64
2023-02-04T23:15:15.568Z,2.54
2023-02-04T23:17:42.505Z,2.51
2023-02-04T23:20:10.245Z,2.46
2023-02-04T23:22:37.605Z,2.68
2023-02-04T23:25:06.505Z,2.76
2023-02-04T23:27:34.089Z,2.45
2023-02-04T23:30:01.027Z,2.25
2023-02-04T23:32:30.963Z,2.14
2023-02-04T23:35:00.650Z,2.42
2023-02-04T23:37:28.320Z,2.42
2023-02-04T23:39:58.086Z,2.39
2023-02-04T23:42:31.201Z,2.48
2023-02-04T23:45:00.337Z,2.51
2023-02-04T23:47:27.402Z,2.43
2023-02-04T23:49:54.369Z,2.51
2023-02-04T23:52:23.663Z,2.14
2023-02-04T23:54:55.381Z,2.22
2023-02-04T23:57:24.785Z,2.05
2023-02-04T23:59:54.731Z,1.93
